Terminal Aerodrome Forecast
Issued by NWS

Home | Current Version | Previous Version | Text Only | Print | Product List | Glossary On
Versions: 1 2 3 4 5 6 7 8 9 10 11 12 13 14 15
000
FTUS46 KMFR 312346
TAFLMT
TAF
KLMT 312346Z 0100/0124 32009KT P6SM SKC
     FM010800 00000KT P6SM FEW250
     FM012200 26010G17KT P6SM FEW060=

USA.gov is the U.S. government's official web portal to all federal, state and local government web resources and services.